createdAt,value
2017-12-12T00:01:04.378Z,976.28
2017-12-12T00:02:18.377Z,976.38
2017-12-12T00:03:32.587Z,976.37
2017-12-12T00:04:46.391Z,976.35
2017-12-12T00:05:59.910Z,976.4
2017-12-12T00:07:13.502Z,976.39
2017-12-12T00:08:27.627Z,976.32
2017-12-12T00:09:42.129Z,976.38
2017-12-12T00:10:56.172Z,976.37
2017-12-12T00:12:14.545Z,976.43
2017-12-12T00:13:28.931Z,976.38
2017-12-12T00:14:43.685Z,976.52
2017-12-12T00:15:57.721Z,976.59
2017-12-12T00:17:11.888Z,976.55
2017-12-12T00:18:26.641Z,976.54
2017-12-12T00:19:41.098Z,976.55
2017-12-12T00:20:54.852Z,976.65
2017-12-12T00:22:08.724Z,976.63
2017-12-12T00:23:22.902Z,976.62
2017-12-12T00:24:41.062Z,976.69
2017-12-12T00:25:54.990Z,976.78
2017-12-12T00:27:08.511Z,976.76
2017-12-12T00:28:22.185Z,976.82
2017-12-12T00:29:35.871Z,976.87
2017-12-12T00:30:49.719Z,976.76
2017-12-12T00:32:03.973Z,976.87
2017-12-12T00:33:17.955Z,976.91
2017-12-12T00:34:32.623Z,976.96
2017-12-12T00:35:46.433Z,977
2017-12-12T00:37:00.582Z,976.96
2017-12-12T00:38:15.049Z,976.98
2017-12-12T00:39:29.246Z,977.07
2017-12-12T00:40:43.298Z,977.07
2017-12-12T00:41:57.506Z,977.14
2017-12-12T00:43:12.469Z,977.18
2017-12-12T00:44:26.929Z,977.2
2017-12-12T00:45:40.947Z,977.21
2017-12-12T00:46:55.332Z,977.22
2017-12-12T00:48:11.564Z,977.24
2017-12-12T00:49:25.868Z,977.27
2017-12-12T00:50:40.811Z,977.36
2017-12-12T00:51:55.384Z,977.41
2017-12-12T00:53:10.512Z,977.35
2017-12-12T00:54:27.141Z,977.45
2017-12-12T00:55:42.006Z,977.31
2017-12-12T00:56:58.225Z,977.47
2017-12-12T00:58:14.728Z,977.49
2017-12-12T00:59:30.930Z,977.53
2017-12-12T01:00:46.046Z,977.54
2017-12-12T01:02:00.518Z,977.51
2017-12-12T01:03:15.318Z,977.49
2017-12-12T01:04:29.190Z,977.61
2017-12-12T01:05:43.704Z,977.64
2017-12-12T01:06:57.270Z,977.68
2017-12-12T01:08:11.107Z,977.63
2017-12-12T01:09:25.899Z,977.58
2017-12-12T01:10:40.016Z,977.73
2017-12-12T01:11:54.148Z,977.69
2017-12-12T01:13:09.065Z,977.75
2017-12-12T01:14:23.609Z,977.69
2017-12-12T01:15:37.894Z,977.81
2017-12-12T01:16:51.570Z,977.82
2017-12-12T01:18:05.806Z,977.88
2017-12-12T01:19:19.502Z,977.92
2017-12-12T01:20:33.519Z,977.96
2017-12-12T01:21:47.187Z,978.03
2017-12-12T01:23:00.817Z,978
2017-12-12T01:24:14.443Z,978.12
2017-12-12T01:25:29.810Z,978.12
2017-12-12T01:26:43.668Z,978.17
2017-12-12T01:27:58.209Z,978.13
2017-12-12T01:29:12.118Z,978.26
2017-12-12T01:30:26.002Z,978.24
2017-12-12T01:31:40.648Z,978.29
2017-12-12T01:32:54.423Z,978.26
2017-12-12T01:34:08.672Z,978.42
2017-12-12T01:35:22.390Z,978.48
2017-12-12T01:36:38.310Z,978.51
2017-12-12T01:37:52.707Z,978.56
2017-12-12T01:39:06.999Z,978.58
2017-12-12T01:40:21.444Z,978.67
2017-12-12T01:41:35.125Z,978.59
2017-12-12T01:42:50.330Z,978.62
2017-12-12T01:44:04.684Z,978.69
2017-12-12T01:45:19.547Z,978.81
2017-12-12T01:46:33.455Z,978.83
2017-12-12T01:47:47.630Z,978.89
2017-12-12T01:49:02.170Z,978.87
2017-12-12T01:50:15.892Z,978.9
2017-12-12T01:51:30.165Z,978.99
2017-12-12T01:52:43.927Z,979.02
2017-12-12T01:53:57.830Z,979.09
2017-12-12T01:55:11.730Z,979.13
2017-12-12T01:56:25.605Z,979.1
2017-12-12T01:57:39.483Z,979.2
2017-12-12T01:58:53.805Z,979.17
2017-12-12T02:00:07.648Z,979.27
2017-12-12T02:01:21.856Z,979.23
2017-12-12T02:02:36.134Z,979.29
2017-12-12T02:03:49.916Z,979.42
2017-12-12T02:05:03.419Z,979.12
2017-12-12T02:06:17.796Z,979.43
2017-12-12T02:07:31.291Z,979.2
2017-12-12T02:08:45.231Z,979.48
2017-12-12T02:09:59.605Z,979.3
2017-12-12T02:11:14.512Z,979.69
2017-12-12T02:12:28.551Z,979.77
2017-12-12T02:13:42.069Z,979.81
2017-12-12T02:14:55.560Z,979.8
2017-12-12T02:16:09.478Z,979.95
2017-12-12T02:17:23.247Z,979.83
2017-12-12T02:18:36.962Z,980.04
2017-12-12T02:19:50.489Z,980.03
2017-12-12T02:21:04.466Z,979.95
2017-12-12T02:22:18.071Z,980.06
2017-12-12T02:23:38.273Z,980.1
2017-12-12T02:24:53.043Z,980.26
2017-12-12T02:26:06.980Z,980.33
2017-12-12T02:27:20.603Z,980.43
2017-12-12T02:28:34.179Z,980.42
2017-12-12T02:29:48.155Z,980.53
2017-12-12T02:31:02.056Z,980.52
2017-12-12T02:32:15.818Z,980.52
2017-12-12T02:33:29.850Z,980.71
2017-12-12T02:34:44.221Z,980.58
2017-12-12T02:35:57.779Z,980.79
2017-12-12T02:37:11.823Z,980.69
2017-12-12T02:38:26.199Z,980.89
2017-12-12T02:39:40.133Z,980.82
2017-12-12T02:40:53.818Z,980.86
2017-12-12T02:42:07.899Z,981.06
2017-12-12T02:43:21.652Z,981.05
2017-12-12T02:44:35.170Z,981.1
2017-12-12T02:45:48.721Z,981.13
2017-12-12T02:47:02.594Z,981.1
2017-12-12T02:48:16.648Z,981.24
2017-12-12T02:49:30.531Z,981.25
2017-12-12T02:50:44.034Z,981.28
2017-12-12T02:51:57.786Z,981.28
2017-12-12T02:53:11.322Z,981.35
2017-12-12T02:54:25.397Z,981.46
2017-12-12T02:55:39.668Z,981.33
2017-12-12T02:56:53.633Z,981.36
2017-12-12T02:58:07.116Z,981.57
2017-12-12T02:59:20.907Z,981.62
2017-12-12T03:00:34.394Z,981.6
2017-12-12T03:01:48.345Z,981.8
2017-12-12T03:03:01.812Z,981.77
2017-12-12T03:04:15.370Z,981.94
2017-12-12T03:05:29.690Z,981.95
2017-12-12T03:06:43.176Z,982.04
2017-12-12T03:07:56.923Z,982.06
2017-12-12T03:09:10.411Z,982.13
2017-12-12T03:10:24.000Z,982.11
2017-12-12T03:11:37.819Z,982.18
2017-12-12T03:12:51.518Z,982.09
2017-12-12T03:14:05.045Z,982.13
2017-12-12T03:15:18.602Z,982.28
2017-12-12T03:16:32.213Z,982.22
2017-12-12T03:17:45.942Z,982.34
2017-12-12T03:18:59.510Z,982.36
2017-12-12T03:20:13.063Z,982.54
2017-12-12T03:21:26.873Z,982.51
2017-12-12T03:22:40.782Z,982.49
2017-12-12T03:23:55.116Z,982.57
2017-12-12T03:25:09.323Z,982.57
2017-12-12T03:26:22.992Z,982.65
2017-12-12T03:27:36.652Z,982.8
2017-12-12T03:28:50.874Z,982.84
2017-12-12T03:30:04.659Z,982.86
2017-12-12T03:31:18.152Z,982.96
2017-12-12T03:32:31.777Z,982.99
2017-12-12T03:33:46.416Z,982.89
2017-12-12T03:34:59.883Z,983.06
2017-12-12T03:36:13.802Z,983.05
2017-12-12T03:37:27.508Z,983.18
2017-12-12T03:38:41.722Z,983.27
2017-12-12T03:39:55.990Z,983.36
2017-12-12T03:41:09.508Z,983.29
2017-12-12T03:42:22.995Z,983.5
2017-12-12T03:43:36.441Z,983.61
2017-12-12T03:44:50.254Z,983.63
2017-12-12T03:46:03.739Z,983.76
2017-12-12T03:47:17.222Z,983.84
2017-12-12T03:48:31.111Z,983.83
2017-12-12T03:49:44.936Z,983.94
2017-12-12T03:50:58.925Z,983.83
2017-12-12T03:52:12.451Z,983.97
2017-12-12T03:53:26.115Z,984.1
2017-12-12T03:54:39.981Z,984.13
2017-12-12T03:55:53.831Z,984.09
2017-12-12T03:57:07.714Z,984.26
2017-12-12T03:58:21.237Z,984.27
2017-12-12T03:59:34.729Z,984.29
2017-12-12T04:00:48.470Z,984.33
2017-12-12T04:02:01.949Z,984.49
2017-12-12T04:03:16.862Z,984.47
2017-12-12T04:04:30.656Z,984.52
2017-12-12T04:05:44.408Z,984.52
2017-12-12T04:06:58.085Z,984.64
2017-12-12T04:08:11.536Z,984.74
2017-12-12T04:10:53.578Z,984.84
2017-12-12T04:12:07.378Z,984.87
2017-12-12T04:13:20.993Z,984.83
2017-12-12T04:14:34.550Z,985.13
2017-12-12T04:15:48.435Z,985.11
2017-12-12T04:17:02.278Z,985.13
2017-12-12T04:18:15.756Z,985.27
2017-12-12T04:19:29.494Z,985.31
2017-12-12T04:20:42.950Z,985.27
2017-12-12T04:21:56.556Z,985.38
2017-12-12T04:23:10.338Z,985.39
2017-12-12T04:24:24.048Z,985.47
2017-12-12T04:25:37.561Z,985.51
2017-12-12T04:26:51.580Z,985.49
2017-12-12T04:28:05.068Z,985.41
2017-12-12T04:29:18.912Z,985.42
2017-12-12T04:30:33.484Z,985.58
2017-12-12T04:31:47.225Z,985.52
2017-12-12T04:33:00.900Z,985.39
2017-12-12T04:34:14.906Z,985.55
2017-12-12T04:35:29.295Z,985.6
2017-12-12T04:36:43.687Z,985.62
2017-12-12T04:37:57.198Z,985.68
2017-12-12T04:39:11.409Z,985.66
2017-12-12T04:40:25.492Z,985.78
2017-12-12T04:41:40.051Z,985.84
2017-12-12T04:42:53.738Z,985.91
2017-12-12T04:44:07.219Z,986.01
2017-12-12T04:45:20.686Z,986.05
2017-12-12T04:46:34.670Z,986.12
2017-12-12T04:47:48.284Z,986.12
2017-12-12T04:49:01.892Z,986.21
2017-12-12T04:50:15.594Z,986.18
2017-12-12T04:51:29.113Z,986.31
2017-12-12T04:52:43.122Z,986.36
2017-12-12T04:53:56.691Z,986.34
2017-12-12T04:55:10.222Z,986.28
2017-12-12T04:56:24.493Z,986.44
2017-12-12T04:57:38.163Z,986.5
2017-12-12T05:01:10.310Z,986.46
2017-12-12T05:02:24.249Z,986.42
2017-12-12T05:03:37.848Z,986.59
2017-12-12T05:04:51.419Z,986.67
2017-12-12T05:06:04.890Z,986.67
2017-12-12T05:07:18.811Z,986.85
2017-12-12T05:08:32.311Z,986.78
2017-12-12T05:09:45.830Z,986.9
2017-12-12T05:10:59.274Z,986.98
2017-12-12T05:12:12.971Z,986.79
2017-12-12T05:13:26.974Z,987.01
2017-12-12T05:14:40.774Z,987.19
2017-12-12T05:15:54.324Z,987.2
2017-12-12T05:17:08.454Z,987.39
2017-12-12T05:18:22.030Z,987.4
2017-12-12T05:19:35.748Z,987.42
2017-12-12T05:20:49.471Z,987.5
2017-12-12T05:22:03.199Z,987.54
2017-12-12T05:23:16.913Z,987.58
2017-12-12T05:24:30.589Z,987.75
2017-12-12T05:25:44.726Z,987.81
2017-12-12T05:27:00.086Z,987.86
2017-12-12T05:28:13.546Z,987.88
2017-12-12T05:29:28.145Z,987.91
2017-12-12T05:30:41.599Z,988
2017-12-12T05:31:55.251Z,987.99
2017-12-12T05:33:08.919Z,988.03
2017-12-12T05:34:22.665Z,988.11
2017-12-12T05:35:36.132Z,988.14
2017-12-12T05:36:49.752Z,988.2
2017-12-12T05:38:03.518Z,988.22
2017-12-12T05:39:17.212Z,988.25
2017-12-12T05:40:31.990Z,988.17
2017-12-12T05:41:46.032Z,988.33
2017-12-12T05:42:59.514Z,988.38
2017-12-12T05:44:19.320Z,988.42
2017-12-12T05:45:32.920Z,988.59
2017-12-12T05:46:46.411Z,988.62
2017-12-12T05:48:00.202Z,988.7
2017-12-12T05:49:14.123Z,988.66
2017-12-12T05:50:27.645Z,988.82
2017-12-12T05:51:41.089Z,988.9
2017-12-12T05:52:54.937Z,988.87
2017-12-12T05:54:08.707Z,989
2017-12-12T05:55:22.686Z,989.02
2017-12-12T05:56:36.729Z,989.04
2017-12-12T05:57:50.426Z,989.07
2017-12-12T05:59:04.394Z,989.16
2017-12-12T06:00:18.178Z,989.02
2017-12-12T06:01:31.805Z,989.18
2017-12-12T06:02:45.831Z,989.24
2017-12-12T06:03:59.670Z,989.39
2017-12-12T06:05:14.093Z,989.47
2017-12-12T06:06:29.741Z,989.46
2017-12-12T06:07:44.145Z,989.5
2017-12-12T06:08:57.911Z,989.59
2017-12-12T06:10:12.014Z,989.56
2017-12-12T06:11:26.454Z,989.44
2017-12-12T06:12:40.834Z,989.66
2017-12-12T06:15:47.033Z,989.68
2017-12-12T06:17:01.564Z,989.84
2017-12-12T06:18:15.331Z,989.8
2017-12-12T06:19:29.058Z,989.85
2017-12-12T06:20:42.723Z,989.67
2017-12-12T06:21:57.237Z,989.88
2017-12-12T06:23:10.799Z,989.87
2017-12-12T06:24:25.518Z,989.87
2017-12-12T06:25:39.559Z,990.03
2017-12-12T06:26:54.230Z,990.08
2017-12-12T06:28:07.846Z,990.04
2017-12-12T06:29:21.766Z,990.12
2017-12-12T06:30:36.417Z,990.05
2017-12-12T06:31:51.090Z,990.18
2017-12-12T06:33:04.775Z,990.12
2017-12-12T06:34:19.793Z,990.26
2017-12-12T06:35:35.394Z,990.23
2017-12-12T06:36:49.179Z,990.1
2017-12-12T06:38:02.803Z,990.19
2017-12-12T06:39:16.957Z,990.13
2017-12-12T06:40:31.587Z,990.04
2017-12-12T06:41:46.650Z,990.24
2017-12-12T06:43:05.019Z,990.28
2017-12-12T06:44:21.361Z,990.13
2017-12-12T06:45:37.445Z,990.33
2017-12-12T06:46:51.866Z,990.52
2017-12-12T06:48:06.946Z,990.52
2017-12-12T06:49:21.407Z,990.59
2017-12-12T06:50:36.764Z,990.65
2017-12-12T06:51:50.817Z,990.7
2017-12-12T06:53:05.760Z,990.73
2017-12-12T06:54:20.898Z,990.81
2017-12-12T06:55:35.591Z,990.85
2017-12-12T06:56:51.321Z,990.98
2017-12-12T06:58:04.775Z,990.91
2017-12-12T06:59:19.288Z,990.98
2017-12-12T07:00:33.278Z,991.09
2017-12-12T07:01:47.742Z,991.11
2017-12-12T07:03:03.454Z,991.3
2017-12-12T07:04:17.681Z,991.21
2017-12-12T07:05:31.543Z,991.38
2017-12-12T07:06:45.813Z,991.47
2017-12-12T07:07:59.294Z,991.53
2017-12-12T07:09:13.530Z,991.59
2017-12-12T07:10:28.240Z,991.57
2017-12-12T07:11:43.181Z,991.6
2017-12-12T07:12:58.253Z,991.68
2017-12-12T07:14:14.033Z,991.72
2017-12-12T07:15:27.938Z,991.82
2017-12-12T07:16:41.885Z,991.77
2017-12-12T07:17:55.903Z,991.94
2017-12-12T07:19:10.095Z,991.96
2017-12-12T07:20:23.555Z,991.97
2017-12-12T07:21:37.060Z,992.02
2017-12-12T07:22:50.579Z,992.06
2017-12-12T07:24:04.526Z,992.12
2017-12-12T07:25:18.134Z,992.16
2017-12-12T07:26:31.878Z,992.23
2017-12-12T07:27:45.756Z,992.29
2017-12-12T07:28:59.979Z,992.35
2017-12-12T07:30:14.636Z,992.37
2017-12-12T07:31:28.824Z,992.34
2017-12-12T07:32:43.352Z,992.44
2017-12-12T07:34:04.461Z,992.48
2017-12-12T07:35:30.249Z,992.54
2017-12-12T07:36:45.200Z,992.64
2017-12-12T07:37:59.605Z,992.63
2017-12-12T07:39:13.560Z,992.77
2017-12-12T07:40:27.483Z,992.84
2017-12-12T07:41:42.787Z,992.89
2017-12-12T07:42:56.635Z,992.68
2017-12-12T07:44:10.341Z,992.83
2017-12-12T07:45:24.245Z,992.91
2017-12-12T07:46:38.619Z,992.96
2017-12-12T07:47:52.946Z,993.06
2017-12-12T07:49:06.397Z,993.13
2017-12-12T07:50:20.530Z,993.07
2017-12-12T07:51:36.108Z,993.17
2017-12-12T07:52:58.190Z,993.18
2017-12-12T07:54:15.247Z,993.2
2017-12-12T07:55:31.107Z,993.13
2017-12-12T07:56:49.037Z,993.12
2017-12-12T07:58:08.452Z,993.23
2017-12-12T07:59:23.738Z,993.2
2017-12-12T08:00:42.069Z,993.23
2017-12-12T08:02:01.415Z,993.35
2017-12-12T08:03:16.791Z,993.38
2017-12-12T08:04:35.700Z,993.31
2017-12-12T08:05:50.631Z,993.35
2017-12-12T08:07:06.741Z,993.39
2017-12-12T08:08:23.140Z,993.4
2017-12-12T08:09:37.105Z,993.34
2017-12-12T08:10:51.022Z,993.47
2017-12-12T08:12:05.442Z,993.53
2017-12-12T08:13:19.492Z,993.49
2017-12-12T08:14:33.271Z,993.53
2017-12-12T08:15:46.904Z,993.49
2017-12-12T08:17:02.104Z,993.58
2017-12-12T08:18:16.677Z,993.6
2017-12-12T08:19:30.842Z,993.63
2017-12-12T08:20:44.942Z,993.69
2017-12-12T08:21:58.513Z,993.69
2017-12-12T08:23:12.345Z,993.74
2017-12-12T08:24:26.399Z,993.78
2017-12-12T08:25:41.135Z,993.78
2017-12-12T08:26:55.031Z,993.86
2017-12-12T08:28:08.851Z,993.93
2017-12-12T08:29:22.625Z,993.89
2017-12-12T08:30:36.354Z,993.84
2017-12-12T08:31:49.863Z,993.9
2017-12-12T08:33:03.672Z,993.9
2017-12-12T08:34:17.673Z,993.94
2017-12-12T08:35:32.238Z,993.99
2017-12-12T08:36:46.216Z,994
2017-12-12T08:37:59.809Z,994.09
2017-12-12T08:39:13.840Z,994.14
2017-12-12T08:40:27.549Z,994.11
2017-12-12T08:41:41.746Z,994.18
2017-12-12T08:42:55.433Z,994.14
2017-12-12T08:44:09.192Z,994.18
2017-12-12T08:45:22.917Z,994.2
2017-12-12T08:46:37.341Z,994.24
2017-12-12T08:47:51.033Z,994.29
2017-12-12T08:49:05.191Z,994.28
2017-12-12T08:50:19.405Z,994.31
2017-12-12T08:51:33.447Z,994.26
2017-12-12T08:52:48.373Z,994.3
2017-12-12T08:54:02.185Z,994.36
2017-12-12T08:55:16.022Z,994.43
2017-12-12T08:56:30.158Z,994.39
2017-12-12T08:57:44.490Z,994.4
2017-12-12T08:58:59.415Z,994.47
2017-12-12T09:00:13.178Z,994.5
2017-12-12T09:01:27.734Z,994.49
2017-12-12T09:02:43.258Z,994.52
2017-12-12T09:04:00.703Z,994.58
2017-12-12T09:05:14.546Z,994.53
2017-12-12T09:06:29.022Z,994.64
2017-12-12T09:07:42.929Z,994.61
2017-12-12T09:08:56.934Z,994.71
2017-12-12T09:10:11.702Z,994.73
2017-12-12T09:11:26.686Z,994.76
2017-12-12T09:12:40.488Z,994.84
2017-12-12T09:13:54.292Z,994.85
2017-12-12T09:15:07.907Z,994.83
2017-12-12T09:16:22.421Z,994.89
2017-12-12T09:17:37.966Z,994.89
2017-12-12T09:18:51.798Z,994.78
2017-12-12T09:20:06.247Z,994.89
2017-12-12T09:21:22.922Z,994.86
2017-12-12T09:22:36.488Z,994.99
2017-12-12T09:23:50.521Z,995.05
2017-12-12T09:25:04.564Z,995.06
2017-12-12T09:26:18.178Z,995.01
2017-12-12T09:27:32.346Z,994.94
2017-12-12T09:28:45.981Z,995.02
2017-12-12T09:29:59.643Z,995.2
2017-12-12T09:31:13.428Z,995.07
2017-12-12T09:32:26.980Z,995.11
2017-12-12T09:33:41.477Z,995.16
2017-12-12T09:34:55.583Z,995.21
2017-12-12T09:36:09.328Z,995.22
2017-12-12T09:37:23.320Z,995.18
2017-12-12T09:38:37.700Z,995.26
2017-12-12T09:39:51.633Z,995.3
2017-12-12T09:41:05.187Z,995.42
2017-12-12T09:42:19.920Z,995.46
2017-12-12T09:43:33.960Z,995.49
2017-12-12T09:44:47.742Z,995.48
2017-12-12T09:46:01.232Z,995.53
2017-12-12T09:47:15.046Z,995.55
2017-12-12T09:48:28.497Z,995.48
2017-12-12T09:49:42.276Z,995.55
2017-12-12T09:50:55.811Z,995.51
2017-12-12T09:52:11.036Z,995.63
2017-12-12T09:53:24.798Z,995.52
2017-12-12T09:54:38.846Z,995.64
2017-12-12T09:56:11.950Z,995.55
2017-12-12T09:57:28.240Z,995.58
2017-12-12T09:58:42.914Z,995.64
2017-12-12T09:59:57.678Z,995.65
2017-12-12T10:01:14.061Z,995.62
2017-12-12T10:02:34.570Z,995.74
2017-12-12T10:03:51.903Z,995.71
2017-12-12T10:05:05.955Z,995.7
2017-12-12T10:06:20.786Z,995.67
2017-12-12T10:07:35.262Z,995.71
2017-12-12T10:08:49.878Z,995.7
2017-12-12T10:10:04.434Z,995.75
2017-12-12T10:11:18.563Z,995.79
2017-12-12T10:12:32.918Z,995.82
2017-12-12T10:14:05.070Z,995.85
2017-12-12T10:16:53.331Z,995.85
2017-12-12T10:18:33.268Z,995.81
2017-12-12T10:19:47.017Z,995.92
2017-12-12T10:21:01.330Z,995.92
2017-12-12T10:22:15.059Z,995.94
2017-12-12T10:23:28.584Z,995.98
2017-12-12T10:24:42.698Z,995.96
2017-12-12T10:25:56.323Z,995.95
2017-12-12T10:27:17.190Z,996
2017-12-12T10:28:35.452Z,996.03
2017-12-12T10:29:53.889Z,996.06
2017-12-12T10:31:12.170Z,995.82
2017-12-12T10:32:46.850Z,996.11
2017-12-12T10:34:11.245Z,996.14
2017-12-12T10:35:25.427Z,996.08
2017-12-12T10:36:39.426Z,995.93
2017-12-12T10:37:52.973Z,996.18
2017-12-12T10:39:07.621Z,996.13
2017-12-12T10:40:21.264Z,996.09
2017-12-12T10:41:39.273Z,996.24
2017-12-12T10:43:13.121Z,996.23
2017-12-12T10:44:28.648Z,996.21
2017-12-12T10:45:44.161Z,996.3
2017-12-12T10:47:01.788Z,996.11
2017-12-12T10:48:16.297Z,996.28
2017-12-12T10:49:30.188Z,996.35
2017-12-12T10:50:44.001Z,996.37
2017-12-12T10:51:58.318Z,996.35
2017-12-12T10:53:13.336Z,996.32
2017-12-12T10:54:42.054Z,996.36
2017-12-12T10:55:57.141Z,996.45
2017-12-12T10:57:14.908Z,996.47
2017-12-12T10:58:30.250Z,996.36
2017-12-12T10:59:44.092Z,996.47
2017-12-12T11:00:57.953Z,996.45
2017-12-12T11:02:11.721Z,996.48
2017-12-12T11:03:25.612Z,996.56
2017-12-12T11:04:53.996Z,996.48
2017-12-12T11:06:07.516Z,996.56
2017-12-12T11:07:21.253Z,996.53
2017-12-12T11:08:35.167Z,996.59
2017-12-12T11:09:49.917Z,996.57
2017-12-12T11:11:05.443Z,996.62
2017-12-12T11:12:19.816Z,996.67
2017-12-12T11:13:33.778Z,996.61
2017-12-12T11:14:47.493Z,996.61
2017-12-12T11:16:01.109Z,996.57
2017-12-12T11:17:14.655Z,996.6
2017-12-12T11:18:28.770Z,996.69
2017-12-12T11:19:43.089Z,996.76
2017-12-12T11:20:56.567Z,996.72
2017-12-12T11:22:10.109Z,996.77
2017-12-12T11:23:23.889Z,996.68
2017-12-12T11:24:37.382Z,996.77
2017-12-12T11:25:50.954Z,996.77
2017-12-12T11:27:04.720Z,996.79
2017-12-12T11:28:18.517Z,996.82
2017-12-12T11:29:32.614Z,996.69
2017-12-12T11:30:47.637Z,996.63
2017-12-12T11:32:01.747Z,996.72
2017-12-12T11:33:15.656Z,996.71
2017-12-12T11:34:30.019Z,996.84
2017-12-12T11:35:44.328Z,996.88
2017-12-12T11:36:57.828Z,996.76
2017-12-12T11:38:11.752Z,996.8
2017-12-12T11:39:25.449Z,996.85
2017-12-12T11:40:39.974Z,996.81
2017-12-12T11:41:58.504Z,996.87
2017-12-12T11:43:16.156Z,996.83
2017-12-12T11:44:31.258Z,996.88
2017-12-12T11:45:50.645Z,996.92
2017-12-12T11:47:05.257Z,996.99
2017-12-12T11:48:19.814Z,997.01
2017-12-12T11:49:33.495Z,997
2017-12-12T11:50:47.172Z,996.94
2017-12-12T11:52:01.419Z,996.98
2017-12-12T11:53:16.428Z,996.96
2017-12-12T11:54:31.931Z,997.04
2017-12-12T11:55:45.938Z,997.04
2017-12-12T11:57:00.333Z,997.01
2017-12-12T11:58:15.243Z,997.11
2017-12-12T11:59:30.452Z,997.05
2017-12-12T12:00:44.838Z,997.01
2017-12-12T12:01:59.041Z,997.06
2017-12-12T12:03:12.804Z,997.09
2017-12-12T12:04:27.739Z,997.09
2017-12-12T12:05:45.256Z,997.15
2017-12-12T12:07:18.906Z,997.13
2017-12-12T12:08:35.971Z,997.23
2017-12-12T12:09:51.872Z,997.14
2017-12-12T12:11:07.654Z,997.24
2017-12-12T12:12:21.934Z,997.31
2017-12-12T12:13:36.648Z,997.24
2017-12-12T12:14:51.440Z,997.29
2017-12-12T12:16:05.708Z,997.35
2017-12-12T12:17:19.710Z,997.24
2017-12-12T12:18:35.131Z,997.34
2017-12-12T12:19:50.182Z,997.39
2017-12-12T12:21:05.358Z,997.34
2017-12-12T12:22:20.330Z,997.4
2017-12-12T12:23:36.987Z,997.47
2017-12-12T12:24:51.982Z,997.47
2017-12-12T12:26:13.025Z,997.51
2017-12-12T12:27:36.728Z,997.55
2017-12-12T12:29:14.310Z,997.58
2017-12-12T12:31:01.090Z,997.54
2017-12-12T12:34:42.299Z,997.49
2017-12-12T12:35:57.261Z,997.58
2017-12-12T12:37:30.908Z,997.58
2017-12-12T12:38:50.551Z,997.58
2017-12-12T12:40:13.204Z,997.61
2017-12-12T12:41:27.077Z,997.61
2017-12-12T12:42:41.426Z,997.59
2017-12-12T12:43:55.232Z,997.48
2017-12-12T12:45:11.636Z,997.65
2017-12-12T12:46:29.401Z,997.71
2017-12-12T12:47:44.292Z,997.6
2017-12-12T12:48:59.891Z,997.8
2017-12-12T12:50:14.366Z,997.7
2017-12-12T12:51:28.790Z,997.6
2017-12-12T12:52:42.312Z,997.76
2017-12-12T12:53:55.964Z,997.59
2017-12-12T12:55:11.122Z,997.71
2017-12-12T12:56:24.846Z,997.8
2017-12-12T12:57:42.801Z,997.89
2017-12-12T12:58:56.718Z,997.89
2017-12-12T13:00:11.499Z,997.88
2017-12-12T13:01:27.217Z,997.95
2017-12-12T13:02:41.276Z,997.95
2017-12-12T13:03:58.711Z,997.89
2017-12-12T13:05:13.324Z,997.94
2017-12-12T13:06:27.758Z,997.94
2017-12-12T13:07:42.381Z,997.94
2017-12-12T13:08:58.495Z,997.98
2017-12-12T13:10:18.067Z,997.88
2017-12-12T13:11:48.547Z,997.94
2017-12-12T13:13:13.876Z,997.97
2017-12-12T13:15:40.991Z,997.92
2017-12-12T13:18:56.427Z,998.05
2017-12-12T13:20:11.952Z,998.02
2017-12-12T13:21:28.392Z,998.09
2017-12-12T13:22:43.804Z,998.11
2017-12-12T13:23:57.834Z,998.13
2017-12-12T13:25:14.487Z,998.13
2017-12-12T13:26:36.929Z,998.1
2017-12-12T13:27:53.068Z,998.07
2017-12-12T13:29:11.136Z,998.05
2017-12-12T13:30:26.410Z,998.1
2017-12-12T13:31:40.404Z,998.18
2017-12-12T13:32:55.798Z,998.17
2017-12-12T13:34:10.696Z,998.2
2017-12-12T13:35:24.362Z,998.24
2017-12-12T13:36:37.893Z,998.24
2017-12-12T13:37:52.024Z,998.22
2017-12-12T13:39:07.412Z,998.21
2017-12-12T13:42:45.786Z,998.23
2017-12-12T13:47:15.968Z,998.25
2017-12-12T13:48:33.635Z,998.35
2017-12-12T13:49:49.975Z,998.3
2017-12-12T13:51:07.540Z,998.34
2017-12-12T13:52:23.115Z,998.4
2017-12-12T13:53:40.592Z,998.35
2017-12-12T13:54:56.273Z,998.44
2017-12-12T13:56:10.952Z,998.45
2017-12-12T13:57:26.982Z,998.49
2017-12-12T13:58:41.791Z,998.48
2017-12-12T13:59:56.044Z,998.51
2017-12-12T14:01:10.713Z,998.49
2017-12-12T14:02:25.263Z,998.54
2017-12-12T14:03:39.497Z,998.5
2017-12-12T14:04:53.999Z,998.54
2017-12-12T14:06:07.914Z,998.65
2017-12-12T14:07:21.899Z,998.6
2017-12-12T14:08:35.563Z,998.61
2017-12-12T14:09:49.226Z,998.65
2017-12-12T14:11:03.045Z,998.72
2017-12-12T14:12:16.892Z,998.75
2017-12-12T14:13:30.745Z,998.76
2017-12-12T14:14:45.288Z,998.85
2017-12-12T14:15:59.952Z,998.93
2017-12-12T14:17:13.485Z,998.88
2017-12-12T14:18:27.538Z,999
2017-12-12T14:19:41.859Z,999.03
2017-12-12T14:20:56.452Z,999.03
2017-12-12T14:22:15.969Z,999.08
2017-12-12T14:23:34.039Z,999.06
2017-12-12T14:24:48.946Z,999.13
2017-12-12T14:26:04.127Z,999.17
2017-12-12T14:27:19.350Z,999.15
2017-12-12T14:28:34.043Z,999.14
2017-12-12T14:29:49.813Z,999.16
2017-12-12T14:31:05.480Z,999.24
2017-12-12T14:32:22.669Z,999.24
2017-12-12T14:33:41.240Z,999.26
2017-12-12T14:34:56.806Z,999.27
2017-12-12T14:36:14.179Z,999.36
2017-12-12T14:37:31.785Z,999.33
2017-12-12T14:38:46.771Z,999.33
2017-12-12T14:40:01.621Z,999.38
2017-12-12T14:41:20.817Z,999.4
2017-12-12T14:42:34.494Z,999.41
2017-12-12T14:43:48.089Z,999.39
2017-12-12T14:45:02.127Z,999.38
2017-12-12T14:46:19.092Z,999.47
2017-12-12T14:48:02.315Z,999.48
2017-12-12T14:49:17.171Z,999.57
2017-12-12T14:50:31.981Z,999.57
2017-12-12T14:51:46.134Z,999.58
2017-12-12T14:53:06.750Z,999.62
2017-12-12T14:54:39.948Z,999.68
2017-12-12T14:58:19.493Z,999.74
2017-12-12T14:59:44.077Z,999.71
2017-12-12T15:00:58.629Z,999.76
2017-12-12T15:02:15.003Z,999.8
2017-12-12T15:03:42.196Z,999.79
2017-12-12T15:04:58.233Z,999.82
2017-12-12T15:06:14.814Z,999.84
2017-12-12T15:07:28.922Z,999.9
2017-12-12T15:08:42.678Z,999.84
2017-12-12T15:09:56.749Z,999.91
2017-12-12T15:11:10.647Z,999.96
2017-12-12T15:12:24.235Z,999.99
2017-12-12T15:13:38.943Z,1000.02
2017-12-12T15:14:52.486Z,1000.03
2017-12-12T15:16:06.372Z,999.92
2017-12-12T15:17:20.041Z,1000.09
2017-12-12T15:18:35.537Z,1000.09
2017-12-12T15:19:50.276Z,1000.09
2017-12-12T15:21:03.819Z,1000.14
2017-12-12T15:22:18.176Z,1000.2
2017-12-12T15:23:34.483Z,1000.25
2017-12-12T15:24:48.746Z,1000.12
2017-12-12T15:26:03.004Z,1000.28
2017-12-12T15:27:17.605Z,1000.36
2017-12-12T15:28:31.498Z,1000.35
2017-12-12T15:29:45.582Z,1000.36
2017-12-12T15:30:59.158Z,1000.42
2017-12-12T15:32:12.915Z,1000.42
2017-12-12T15:33:27.395Z,1000.51
2017-12-12T15:34:41.050Z,1000.56
2017-12-12T15:35:55.619Z,1000.48
2017-12-12T15:37:10.255Z,1000.5
2017-12-12T15:38:35.222Z,1000.51
2017-12-12T15:39:57.540Z,1000.53
2017-12-12T15:41:13.008Z,1000.5
2017-12-12T15:42:36.724Z,1000.51
2017-12-12T15:43:57.493Z,1000.58
2017-12-12T15:45:22.728Z,1000.67
2017-12-12T15:47:30.151Z,1000.65
2017-12-12T15:51:58.373Z,1000.82
2017-12-12T15:53:14.105Z,1000.84
2017-12-12T15:54:32.409Z,1000.83
2017-12-12T15:55:48.216Z,1000.85
2017-12-12T15:57:05.227Z,1000.85
2017-12-12T15:58:20.284Z,1000.91
2017-12-12T15:59:36.513Z,1000.96
2017-12-12T16:00:54.524Z,1000.97
2017-12-12T16:02:14.723Z,1001.01
2017-12-12T16:03:49.122Z,1001.1
2017-12-12T16:05:10.541Z,1001.07